Time;durP1;ratioP1;P1;durP2;ratioP2;P2;SDS_P1;SDS_P2;PMS_P1;PMS_P2;Temp;Humidity;BMP_temperature;BMP_pressure;BME280_temperature;BME280_humidity;BME280_pressure;Samples;Min_cycle;Max_cycle;Signal;HPM_P1;HPM_P2
2021/06/05 00:01:48;;;;;;;0.40;0.40;;;;;;;16.10;84.79;102028.44;4976003;28;20404;-81
2021/06/05 00:04:14;;;;;;;0.40;0.40;;;;;;;15.99;85.27;102026.72;4987866;28;20050;-81
2021/06/05 00:06:40;;;;;;;0.40;0.40;;;;;;;15.97;85.69;102023.34;4976127;28;20536;-82
2021/06/05 00:09:07;;;;;;;0.40;0.40;;;;;;;15.90;85.71;102024.81;4991689;28;20029;-81
2021/06/05 00:11:33;;;;;;;0.40;0.40;;;;;;;15.91;85.80;102018.59;4959953;28;20404;-82
2021/06/05 00:14:02;;;;;;;0.40;0.40;;;;;;;15.97;86.03;102026.81;4991258;28;20511;-82
2021/06/05 00:16:42;;;;;;;0.50;0.50;;;;;;;15.94;85.62;102034.13;4980458;28;20081;-82
2021/06/05 00:19:11;;;;;;;0.40;0.40;;;;;;;15.95;85.27;102033.16;4982255;28;20035;-81
2021/06/05 00:21:36;;;;;;;0.40;0.40;;;;;;;15.83;85.52;102031.53;4980271;28;20551;-81
2021/06/05 00:24:02;;;;;;;0.43;0.43;;;;;;;15.99;85.16;102045.94;5006497;28;20030;-81
2021/06/05 00:26:28;;;;;;;0.40;0.40;;;;;;;15.82;85.30;102017.59;4982003;28;20357;-81
2021/06/05 00:28:54;;;;;;;0.40;0.40;;;;;;;15.83;85.42;102023.66;4965972;28;20034;-82
2021/06/05 00:31:20;;;;;;;0.32;0.32;;;;;;;15.67;85.81;102026.69;4994819;28;20048;-82
2021/06/05 00:33:46;;;;;;;0.30;0.30;;;;;;;15.82;85.58;102038.59;4953695;28;20033;-81
2021/06/05 00:36:12;;;;;;;0.40;0.40;;;;;;;15.83;85.42;102036.81;4978541;28;20563;-82
2021/06/05 00:38:39;;;;;;;0.40;0.40;;;;;;;15.69;85.50;102017.72;4986949;28;20034;-82
2021/06/05 00:41:07;;;;;;;0.30;0.30;;;;;;;15.75;85.53;102033.94;5009927;28;20062;-82
2021/06/05 00:43:40;;;;;;;0.60;0.60;;;;;;;15.74;85.66;102034.91;4970327;28;20026;-81
2021/06/05 00:46:05;;;;;;;0.45;0.45;;;;;;;15.70;85.74;102011.53;4986986;28;20034;-81
2021/06/05 00:48:31;;;;;;;0.40;0.40;;;;;;;15.78;85.44;102024.00;4973844;28;20038;-81
2021/06/05 00:50:58;;;;;;;0.40;0.40;;;;;;;15.77;85.32;102016.25;5003851;28;20178;-82
2021/06/05 00:53:29;;;;;;;0.30;0.30;;;;;;;15.65;86.11;102013.69;4985878;28;20046;-82
2021/06/05 00:55:58;;;;;;;0.30;0.30;;;;;;;15.62;86.02;102018.34;4995258;28;20042;-81
2021/06/05 00:58:27;;;;;;;0.40;0.40;;;;;;;15.61;86.38;102014.88;4956476;28;20206;-81
2021/06/05 01:01:01;;;;;;;0.40;0.40;;;;;;;15.60;86.20;102000.06;4989549;28;20041;-82
2021/06/05 01:03:27;;;;;;;0.30;0.30;;;;;;;15.59;86.24;102011.53;4955458;28;20034;-81
2021/06/05 01:05:59;;;;;;;0.30;0.30;;;;;;;15.26;86.45;101982.69;4964926;28;20787;-81
2021/06/05 01:09:04;;;;;;;0.30;0.30;;;;;;;15.42;86.73;102015.47;4957470;28;20886;-82
2021/06/05 01:11:55;;;;;;;0.30;0.30;;;;;;;15.46;86.12;102012.63;4977683;28;20157;-82
2021/06/05 01:14:36;;;;;;;0.28;0.28;;;;;;;15.42;86.80;102009.38;4986925;28;20042;-82
2021/06/05 01:17:09;;;;;;;0.20;0.20;;;;;;;15.37;86.24;101998.44;4974605;28;20030;-82
2021/06/05 01:19:44;;;;;;;0.30;0.30;;;;;;;15.37;86.28;102006.31;4981791;28;20376;-82
2021/06/05 01:22:39;;;;;;;0.30;0.30;;;;;;;15.24;87.10;101995.94;4988384;28;20125;-82
2021/06/05 01:25:20;;;;;;;0.20;0.20;;;;;;;15.43;86.32;102011.88;4994753;28;20484;-82
2021/06/05 01:27:54;;;;;;;0.20;0.20;;;;;;;15.31;86.66;101986.63;4955114;28;20034;-81
2021/06/05 01:30:29;;;;;;;0.22;0.22;;;;;;;15.31;86.50;101996.31;5009608;28;20066;-81
2021/06/05 01:32:58;;;;;;;0.20;0.20;;;;;;;15.33;86.74;102008.34;4954867;28;20550;-82
2021/06/05 01:35:27;;;;;;;0.20;0.20;;;;;;;15.35;86.77;102008.22;4973150;28;20035;-82
2021/06/05 01:37:55;;;;;;;0.20;0.20;;;;;;;15.41;86.98;102013.81;4981991;28;20377;-81
2021/06/05 01:40:25;;;;;;;0.20;0.20;;;;;;;15.33;86.79;101994.38;4980580;28;20026;-82
2021/06/05 01:42:52;;;;;;;0.20;0.20;;;;;;;15.37;86.88;102008.94;4963591;28;20029;-81
2021/06/05 01:45:31;;;;;;;0.20;0.20;;;;;;;15.35;87.12;102008.22;4991179;28;20046;-82
2021/06/05 01:47:58;;;;;;;0.20;0.20;;;;;;;15.17;87.16;101975.56;4969034;28;20058;-82
2021/06/05 01:50:28;;;;;;;0.20;0.20;;;;;;;15.39;87.14;101997.34;4958980;28;20553;-82
2021/06/05 01:52:56;;;;;;;0.20;0.20;;;;;;;15.23;87.26;101977.69;4969911;28;20128;-82
2021/06/05 01:55:32;;;;;;;0.17;0.17;;;;;;;15.21;87.61;101982.22;5005098;28;20049;-82
2021/06/05 01:58:13;;;;;;;0.17;0.17;;;;;;;15.25;88.05;101989.72;4973768;28;20045;-82
2021/06/05 02:00:53;;;;;;;0.20;0.20;;;;;;;15.28;87.12;101980.81;4976673;28;20451;-81
2021/06/05 02:03:20;;;;;;;0.20;0.20;;;;;;;15.30;86.98;101982.34;4946818;28;20510;-81
2021/06/05 02:05:57;;;;;;;0.30;0.30;;;;;;;15.30;86.94;101977.09;4977679;28;20044;-82
2021/06/05 02:08:26;;;;;;;0.20;0.20;;;;;;;15.28;86.87;101993.94;4959418;28;20039;-82
2021/06/05 02:10:59;;;;;;;0.20;0.20;;;;;;;15.30;87.72;101979.72;4995039;28;20026;-81
2021/06/05 02:13:33;;;;;;;0.20;0.20;;;;;;;15.25;87.94;101991.53;4955088;28;20038;-81
2021/06/05 02:16:26;;;;;;;0.20;0.20;;;;;;;15.20;87.40;101984.00;4986698;28;20045;-81
2021/06/05 02:19:02;;;;;;;0.30;0.30;;;;;;;15.31;87.04;101988.44;4948950;28;20030;-81
2021/06/05 02:21:41;;;;;;;0.20;0.20;;;;;;;15.35;87.04;101990.69;4988806;28;20149;-81
2021/06/05 02:24:12;;;;;;;0.20;0.20;;;;;;;15.29;86.92;101987.72;4959730;28;20041;-81
2021/06/05 02:26:41;;;;;;;0.20;0.20;;;;;;;15.24;87.36;101966.22;4991443;28;20041;-82
2021/06/05 02:29:10;;;;;;;0.30;0.30;;;;;;;15.10;87.67;101954.22;4964807;28;20030;-82
2021/06/05 02:31:38;;;;;;;0.20;0.20;;;;;;;15.26;87.62;101970.44;4979715;28;20034;-82
2021/06/05 02:34:09;;;;;;;0.25;0.25;;;;;;;15.30;88.17;101976.25;4970364;28;20735;-81
2021/06/05 02:36:39;;;;;;;0.20;0.20;;;;;;;15.33;87.55;101973.38;4971664;28;20034;-82
2021/06/05 02:39:06;;;;;;;0.20;0.20;;;;;;;15.36;87.54;101978.38;4946070;28;20091;-82
2021/06/05 02:41:33;;;;;;;0.20;0.20;;;;;;;15.40;87.42;101979.81;4973200;28;20073;-82
2021/06/05 02:44:01;;;;;;;0.22;0.22;;;;;;;15.37;87.57;101982.69;4932861;28;20113;-82
2021/06/05 02:46:33;;;;;;;0.20;0.20;;;;;;;15.41;87.65;101970.97;4973758;28;20030;-82
2021/06/05 02:49:19;;;;;;;0.20;0.20;;;;;;;15.51;86.94;101981.59;4984767;28;20494;-82
2021/06/05 02:51:54;;;;;;;0.20;0.20;;;;;;;15.38;87.16;101963.34;4972877;28;20121;-82
2021/06/05 02:54:27;;;;;;;0.30;0.30;;;;;;;15.45;87.36;101969.78;4969418;28;20030;-82
2021/06/05 02:56:57;;;;;;;0.28;0.28;;;;;;;15.49;87.35;101973.84;4990519;28;20046;-82
2021/06/05 02:59:24;;;;;;;0.30;0.30;;;;;;;15.33;87.62;101953.22;4965462;28;20495;-83
2021/06/05 03:01:53;;;;;;;0.20;0.20;;;;;;;15.45;88.27;101963.72;4976218;28;20034;-82
2021/06/05 03:04:21;;;;;;;0.25;0.25;;;;;;;15.40;87.87;101932.56;4951565;28;20113;-81
2021/06/05 03:06:47;;;;;;;0.30;0.30;;;;;;;15.58;87.47;101956.50;4985647;28;20225;-82
2021/06/05 03:09:16;;;;;;;0.30;0.30;;;;;;;15.44;87.39;101939.25;4948061;28;20045;-82
2021/06/05 03:11:47;;;;;;;0.20;0.20;;;;;;;15.54;86.83;101953.28;4968067;28;20046;-82
2021/06/05 03:14:14;;;;;;;0.30;0.30;;;;;;;15.50;87.15;101953.66;4938525;28;20085;-82
2021/06/05 03:16:41;;;;;;;0.30;0.30;;;;;;;15.40;86.85;101943.06;4972371;28;20038;-82
2021/06/05 03:19:09;;;;;;;0.40;0.40;;;;;;;15.27;86.82;101934.53;4965249;28;20125;-82
2021/06/05 03:21:37;;;;;;;0.40;0.40;;;;;;;15.37;86.75;101959.88;4963600;28;20499;-83
2021/06/05 03:24:22;;;;;;;0.32;0.32;;;;;;;15.29;86.90;101964.94;4948949;28;20121;-82
2021/06/05 03:26:49;;;;;;;0.30;0.30;;;;;;;15.25;87.48;101975.78;4992297;28;20042;-82
2021/06/05 03:29:15;;;;;;;2.78;0.50;;;;;;;15.13;87.06;101963.66;4958224;28;20065;-82
2021/06/05 03:31:51;;;;;;;0.30;0.30;;;;;;;15.02;87.42;101953.97;4962776;28;20373;-82
2021/06/05 03:34:17;;;;;;;0.30;0.30;;;;;;;14.88;87.63;101941.94;4956876;28;20041;-82
2021/06/05 03:36:43;;;;;;;0.40;0.40;;;;;;;14.97;87.63;101946.50;4977117;28;20038;-82
2021/06/05 03:39:09;;;;;;;0.30;0.30;;;;;;;14.98;86.98;101931.59;4968775;28;20050;-83
2021/06/05 03:41:41;;;;;;;0.30;0.30;;;;;;;14.98;87.34;101942.91;4971500;28;20429;-82
2021/06/05 03:44:07;;;;;;;0.30;0.30;;;;;;;14.94;87.51;101954.59;4957425;28;20034;-82
2021/06/05 03:46:33;;;;;;;0.20;0.20;;;;;;;14.93;87.17;101938.97;4969801;28;20103;-82
2021/06/05 03:49:02;;;;;;;0.30;0.30;;;;;;;14.98;87.24;101940.28;4969525;28;20566;-82
2021/06/05 03:51:31;;;;;;;0.25;0.25;;;;;;;15.15;86.28;101941.56;4955510;28;20121;-82
2021/06/05 03:53:56;;;;;;;0.20;0.20;;;;;;;14.85;87.05;101896.78;4978527;28;20117;-82
2021/06/05 03:56:22;;;;;;;0.30;0.30;;;;;;;15.03;87.25;101927.63;4947154;28;20129;-82
2021/06/05 03:58:49;;;;;;;0.30;0.30;;;;;;;14.86;87.04;101896.66;4974236;28;20034;-82
2021/06/05 04:01:18;;;;;;;0.30;0.30;;;;;;;15.02;87.86;101925.97;4984312;28;20038;-82
2021/06/05 04:03:44;;;;;;;0.38;0.38;;;;;;;15.01;87.51;101928.72;5005647;28;20115;-82
2021/06/05 04:06:11;;;;;;;0.30;0.30;;;;;;;14.97;87.28;101932.53;4968080;28;20168;-82
2021/06/05 04:08:37;;;;;;;0.28;0.28;;;;;;;14.86;87.48;101933.38;4987620;28;20157;-82
2021/06/05 04:11:03;;;;;;;0.30;0.30;;;;;;;15.01;87.83;101945.28;4944272;28;20043;-81
2021/06/05 04:13:30;;;;;;;0.30;0.30;;;;;;;14.84;87.36;101929.19;4995906;28;20053;-81
2021/06/05 04:15:55;;;;;;;0.20;0.20;;;;;;;14.83;87.50;101925.75;4944022;28;20460;-82
2021/06/05 04:18:30;;;;;;;0.20;0.20;;;;;;;14.81;87.55;101927.66;4988566;28;20046;-83
2021/06/05 04:20:56;;;;;;;0.30;0.30;;;;;;;14.77;88.14;101934.94;4953765;28;20345;-82
2021/06/05 04:23:22;;;;;;;0.20;0.20;;;;;;;14.81;87.62;101956.50;4981895;28;20436;-81
2021/06/05 04:25:48;;;;;;;0.20;0.20;;;;;;;14.69;87.44;101936.47;4984748;28;20058;-82
2021/06/05 04:28:16;;;;;;;0.28;0.28;;;;;;;14.87;87.76;101971.75;4983821;28;20442;-82
2021/06/05 04:30:43;;;;;;;0.15;0.15;;;;;;;14.87;87.53;101976.16;4954227;28;20096;-82
2021/06/05 04:33:11;;;;;;;0.20;0.20;;;;;;;14.70;87.19;101961.72;4994844;28;20064;-83
2021/06/05 04:35:37;;;;;;;0.20;0.20;;;;;;;14.74;87.80;101977.13;4985725;28;20091;-82
2021/06/05 04:38:03;;;;;;;0.20;0.20;;;;;;;14.67;87.86;101967.22;5007271;28;21011;-82
2021/06/05 04:40:29;;;;;;;0.20;0.20;;;;;;;14.61;87.98;101968.53;4982749;28;20950;-82
2021/06/05 04:42:55;;;;;;;0.20;0.20;;;;;;;14.51;88.34;101978.03;4975790;28;20753;-82
2021/06/05 04:45:21;;;;;;;0.10;0.10;;;;;;;14.50;88.38;101979.81;4939273;28;21114;-83
2021/06/05 04:47:46;;;;;;;0.20;0.20;;;;;;;14.44;88.56;101971.59;4984089;28;20045;-82
2021/06/05 04:50:14;;;;;;;0.30;0.30;;;;;;;14.66;88.44;102016.19;4956752;28;20416;-82
2021/06/05 04:52:40;;;;;;;0.20;0.20;;;;;;;14.67;88.43;102030.97;4991476;28;20125;-82
2021/06/05 04:55:07;;;;;;;0.30;0.30;;;;;;;14.60;88.75;102024.53;4938541;28;20827;-82
2021/06/05 04:57:34;;;;;;;0.30;0.30;;;;;;;14.69;89.31;102021.19;4953128;28;20124;-82
2021/06/05 04:59:59;;;;;;;0.20;0.20;;;;;;;14.75;88.78;102027.78;4988039;28;20385;-82
2021/06/05 05:02:25;;;;;;;0.30;0.30;;;;;;;14.59;89.02;102016.78;4978860;28;20108;-81
2021/06/05 05:04:51;;;;;;;0.30;0.30;;;;;;;14.61;89.37;102001.78;4981870;28;20034;-82
2021/06/05 05:07:17;;;;;;;0.20;0.20;;;;;;;14.61;89.50;102002.63;4978444;28;20401;-82
2021/06/05 05:09:42;;;;;;;0.50;0.30;;;;;;;14.55;89.77;102002.25;4990921;28;20033;-81
2021/06/05 05:12:08;;;;;;;0.28;0.28;;;;;;;14.54;90.15;102003.16;4949378;28;20038;-81
2021/06/05 05:14:35;;;;;;;0.40;0.40;;;;;;;14.63;90.06;102013.81;4979455;28;20057;-81
2021/06/05 05:17:01;;;;;;;0.30;0.30;;;;;;;14.54;90.41;101992.69;4951997;28;20057;-81
2021/06/05 05:19:27;;;;;;;0.30;0.30;;;;;;;14.44;90.25;101990.78;4991978;28;20045;-81
2021/06/05 05:21:53;;;;;;;0.30;0.30;;;;;;;14.50;90.59;102016.53;4968513;28;20057;-81
2021/06/05 05:24:18;;;;;;;0.43;0.30;;;;;;;14.40;90.69;101996.34;4988195;28;20045;-81
2021/06/05 05:26:44;;;;;;;0.30;0.30;;;;;;;14.46;91.38;102007.22;4936420;28;20415;-81
2021/06/05 05:29:09;;;;;;;0.20;0.20;;;;;;;14.38;90.92;102008.72;4989238;28;20042;-80
2021/06/05 05:31:35;;;;;;;0.30;0.30;;;;;;;14.37;90.95;102010.53;4960828;28;20061;-81
2021/06/05 05:34:01;;;;;;;0.30;0.20;;;;;;;14.33;91.17;102016.09;4972688;28;20035;-81
2021/06/05 05:36:29;;;;;;;0.20;0.20;;;;;;;14.34;91.56;102017.75;4936978;28;20208;-81
2021/06/05 05:38:56;;;;;;;0.30;0.30;;;;;;;14.25;90.85;102006.19;4982388;28;20046;-81
2021/06/05 05:41:24;;;;;;;0.20;0.20;;;;;;;14.32;91.44;102014.41;4977567;28;20375;-81
2021/06/05 05:43:52;;;;;;;0.20;0.20;;;;;;;14.18;92.31;102008.44;5001904;28;20427;-81
2021/06/05 05:46:17;;;;;;;0.20;0.20;;;;;;;14.18;91.43;102010.19;4968554;28;20251;-81
2021/06/05 05:48:44;;;;;;;0.43;0.20;;;;;;;14.30;91.46;102024.19;4956605;28;20124;-81
2021/06/05 05:51:12;;;;;;;0.30;0.30;;;;;;;14.27;91.05;102034.88;4974324;28;20041;-81
2021/06/05 05:53:39;;;;;;;0.57;0.20;;;;;;;14.17;92.52;102029.47;4969717;28;20117;-80
2021/06/05 05:56:06;;;;;;;0.20;0.20;;;;;;;14.17;92.95;102039.97;4968953;28;20128;-80
2021/06/05 05:58:38;;;;;;;0.40;0.17;;;;;;;14.11;91.92;102040.41;4985529;28;20030;-80
2021/06/05 06:01:06;;;;;;;0.20;0.20;;;;;;;14.01;91.92;102036.81;4982297;28;20624;-80
2021/06/05 06:03:32;;;;;;;0.10;0.10;;;;;;;13.91;92.01;102041.88;4984822;28;20412;-80
2021/06/05 06:05:57;;;;;;;0.10;0.10;;;;;;;13.91;92.35;102050.56;4967378;28;20136;-80
2021/06/05 06:08:23;;;;;;;0.20;0.20;;;;;;;13.84;94.22;102033.66;4965826;28;20793;-81
2021/06/05 06:10:49;;;;;;;0.10;0.10;;;;;;;13.96;94.40;102033.69;4947554;28;20539;-81
2021/06/05 06:13:15;;;;;;;0.13;0.13;;;;;;;13.93;93.17;102042.59;4970177;28;20440;-80
2021/06/05 06:15:41;;;;;;;0.13;0.13;;;;;;;13.94;92.87;102044.28;4950092;28;20049;-80
2021/06/05 06:18:09;;;;;;;0.20;0.20;;;;;;;13.87;93.09;102033.41;4948834;28;20503;-80
2021/06/05 06:20:40;;;;;;;0.20;0.20;;;;;;;13.92;92.66;102046.16;4978391;28;21147;-80
2021/06/05 06:23:07;;;;;;;0.20;0.20;;;;;;;13.81;93.74;102019.91;4966896;28;20476;-80
2021/06/05 06:25:38;;;;;;;0.10;0.10;;;;;;;13.93;92.45;102031.28;4974267;28;20093;-80
2021/06/05 06:28:05;;;;;;;0.20;0.20;;;;;;;13.75;91.19;102002.03;4969913;28;20404;-80
2021/06/05 06:30:34;;;;;;;0.10;0.10;;;;;;;13.76;91.94;101998.47;4976207;28;20038;-80
2021/06/05 06:33:01;;;;;;;0.13;0.13;;;;;;;13.70;92.29;102009.41;4972052;28;20125;-80
2021/06/05 06:35:29;;;;;;;0.20;0.20;;;;;;;13.78;92.07;102026.22;4971060;28;20042;-80
2021/06/05 06:37:55;;;;;;;0.20;0.20;;;;;;;13.79;93.36;102008.72;4972601;28;20034;-80
2021/06/05 06:40:24;;;;;;;0.10;0.10;;;;;;;13.77;93.09;102018.47;4994402;28;20045;-80
2021/06/05 06:42:50;;;;;;;0.10;0.10;;;;;;;13.65;92.04;102008.91;4971494;28;20027;-80
2021/06/05 06:45:15;;;;;;;0.13;0.13;;;;;;;13.81;93.16;102036.47;4995084;28;20045;-80
2021/06/05 06:47:41;;;;;;;0.20;0.20;;;;;;;13.82;92.89;102032.91;4953472;28;20548;-80
2021/06/05 06:50:10;;;;;;;0.10;0.10;;;;;;;13.81;92.95;102028.59;4991432;28;20037;-80
2021/06/05 06:52:35;;;;;;;0.20;0.20;;;;;;;13.95;92.87;102029.41;4952784;28;20448;-79
2021/06/05 06:55:01;;;;;;;0.20;0.20;;;;;;;13.87;92.05;102012.47;4987679;28;20043;-80
2021/06/05 06:57:26;;;;;;;0.10;0.10;;;;;;;14.08;92.06;102019.69;4957478;28;20038;-80
2021/06/05 06:59:52;;;;;;;0.20;0.20;;;;;;;14.05;92.73;102006.84;4983159;28;20101;-80
2021/06/05 07:02:18;;;;;;;0.20;0.20;;;;;;;14.19;92.68;102017.97;4974308;28;20045;-80
2021/06/05 07:04:43;;;;;;;0.20;0.20;;;;;;;14.39;92.50;102041.84;4993015;28;20200;-79
2021/06/05 07:07:09;;;;;;;0.10;0.10;;;;;;;14.51;93.84;102046.19;4960095;28;20719;-79
2021/06/05 07:09:34;;;;;;;0.10;0.10;;;;;;;14.59;92.66;102041.22;4987945;28;20076;-79
2021/06/05 07:12:01;;;;;;;0.20;0.20;;;;;;;14.60;92.18;102019.28;4977923;28;20601;-79
2021/06/05 07:14:27;;;;;;;0.10;0.10;;;;;;;14.68;92.91;102016.06;4993252;28;20092;-80
2021/06/05 07:16:53;;;;;;;0.20;0.20;;;;;;;14.82;91.88;102023.72;4975686;28;20045;-80
2021/06/05 07:19:19;;;;;;;0.20;0.20;;;;;;;14.91;92.77;102016.97;4962850;28;20480;-80
2021/06/05 07:21:45;;;;;;;0.28;0.28;;;;;;;14.85;91.68;102006.91;4973189;28;20471;-79
2021/06/05 07:24:10;;;;;;;0.17;0.17;;;;;;;14.85;90.98;102005.13;4952355;28;20117;-79
2021/06/05 07:26:36;;;;;;;0.10;0.10;;;;;;;15.05;90.93;102014.06;4967771;28;20053;-80
2021/06/05 07:29:05;;;;;;;0.20;0.20;;;;;;;15.00;90.78;101998.69;4961229;28;20050;-80
2021/06/05 07:31:37;;;;;;;0.15;0.15;;;;;;;14.87;91.11;101982.25;4987676;28;20049;-80
2021/06/05 07:34:03;;;;;;;0.10;0.10;;;;;;;15.06;91.48;102008.69;4984567;28;20104;-80
2021/06/05 07:36:46;;;;;;;0.10;0.10;;;;;;;15.17;92.54;102009.66;4967965;28;20046;-79
2021/06/05 07:39:15;;;;;;;0.10;0.10;;;;;;;15.17;90.82;102010.50;4959157;28;20035;-80
2021/06/05 07:41:41;;;;;;;0.10;0.10;;;;;;;15.16;91.22;101982.59;4985571;28;20045;-80
2021/06/05 07:44:08;;;;;;;0.10;0.10;;;;;;;15.38;91.51;102006.19;4943075;28;20477;-80
2021/06/05 07:46:38;;;;;;;0.10;0.10;;;;;;;15.51;91.20;102006.03;5008410;28;20399;-79
2021/06/05 07:49:03;;;;;;;0.20;0.20;;;;;;;15.52;89.96;101996.38;4968191;28;20059;-79
2021/06/05 07:51:29;;;;;;;0.10;0.10;;;;;;;15.43;88.07;101988.25;4992272;28;20061;-79
2021/06/05 07:53:55;;;;;;;0.20;0.20;;;;;;;15.68;89.38;102002.09;4988138;28;20058;-79
2021/06/05 07:56:20;;;;;;;0.20;0.20;;;;;;;15.65;89.52;101978.72;4995541;28;20647;-80
2021/06/05 07:58:46;;;;;;;0.20;0.20;;;;;;;15.88;89.19;101990.81;4950480;28;20415;-80
2021/06/05 08:01:11;;;;;;;0.20;0.20;;;;;;;15.87;89.05;101991.75;4986329;28;20555;-79
2021/06/05 08:03:37;;;;;;;0.20;0.20;;;;;;;16.01;88.18;101995.91;4940005;28;20181;-80
2021/06/05 08:06:03;;;;;;;0.20;0.20;;;;;;;16.02;89.34;101995.78;4989968;28;20034;-79
2021/06/05 08:08:29;;;;;;;0.13;0.13;;;;;;;16.18;88.18;102007.66;4958917;28;20035;-79
2021/06/05 08:10:55;;;;;;;0.20;0.20;;;;;;;16.17;88.21;101991.03;4987691;28;20080;-79
2021/06/05 08:13:21;;;;;;;0.20;0.20;;;;;;;16.18;86.37;101990.09;4957812;28;20148;-79
2021/06/05 08:15:49;;;;;;;0.20;0.20;;;;;;;16.38;86.84;102006.81;4996720;28;20061;-79
2021/06/05 08:18:15;;;;;;;0.20;0.20;;;;;;;16.31;87.85;101997.75;4966600;28;20840;-79
2021/06/05 08:20:46;;;;;;;0.20;0.20;;;;;;;16.40;86.80;101986.50;4981989;28;20084;-79
2021/06/05 08:23:12;;;;;;;0.10;0.10;;;;;;;16.55;87.69;101997.50;5003397;28;20057;-79
2021/06/05 08:25:38;;;;;;;0.20;0.20;;;;;;;16.74;86.46;102004.72;4974686;28;20039;-79
2021/06/05 08:28:04;;;;;;;0.20;0.20;;;;;;;16.77;87.18;102002.63;4980026;28;20096;-79
2021/06/05 08:30:46;;;;;;;0.20;0.20;;;;;;;16.91;86.74;101998.84;4956738;28;20550;-79
2021/06/05 08:33:13;;;;;;;0.20;0.20;;;;;;;16.93;86.63;101978.47;4986336;28;20038;-79
2021/06/05 08:35:40;;;;;;;0.13;0.13;;;;;;;17.05;87.42;101992.34;4983210;28;20053;-79
2021/06/05 08:38:07;;;;;;;0.17;0.17;;;;;;;17.04;87.61;101995.94;4968543;28;20049;-79
2021/06/05 08:41:02;;;;;;;0.10;0.10;;;;;;;17.12;87.84;101994.34;4934267;28;20397;-79
2021/06/05 08:43:51;;;;;;;0.10;0.10;;;;;;;17.16;86.26;101998.38;5000574;28;20345;-80
2021/06/05 08:46:25;;;;;;;0.10;0.10;;;;;;;17.38;86.92;102009.63;4991633;28;20054;-80
2021/06/05 08:48:52;;;;;;;0.15;0.15;;;;;;;17.47;86.46;102008.84;4970291;28;21731;-79
2021/06/05 08:51:25;;;;;;;0.20;0.20;;;;;;;17.52;85.22;102002.19;4984819;28;20463;-79
2021/06/05 08:53:53;;;;;;;0.20;0.20;;;;;;;17.62;86.42;102007.50;4966885;28;20427;-79
2021/06/05 08:56:26;;;;;;;0.40;0.20;;;;;;;17.65;85.01;102009.00;4986226;28;20034;-79
2021/06/05 08:58:57;;;;;;;0.10;0.10;;;;;;;17.66;85.87;101982.53;4968257;28;21235;-79
2021/06/05 09:01:34;;;;;;;0.20;0.20;;;;;;;17.85;83.59;101992.28;4971904;28;20038;-79
2021/06/05 09:04:05;;;;;;;0.20;0.20;;;;;;;17.98;84.27;102006.03;4969612;28;20558;-79
2021/06/05 09:06:45;;;;;;;0.10;0.10;;;;;;;18.09;82.61;102002.41;4972041;28;20728;-79
2021/06/05 09:09:16;;;;;;;0.10;0.10;;;;;;;18.03;82.97;101997.69;4966452;28;20034;-80
2021/06/05 09:11:41;;;;;;;0.10;0.10;;;;;;;18.02;82.46;101994.22;5003394;28;20327;-79
2021/06/05 09:14:07;;;;;;;0.20;0.20;;;;;;;17.89;82.49;101991.03;4969075;28;24995;-80
2021/06/05 09:16:41;;;;;;;0.10;0.10;;;;;;;17.98;84.98;102010.47;4971678;28;20041;-79
2021/06/05 09:19:06;;;;;;;;;;;;;;;18.03;83.67;102027.50;4962877;28;20419;-79
2021/06/05 09:21:41;;;;;;;0.10;0.10;;;;;;;18.03;83.54;102022.25;4986171;28;19918;-80
2021/06/05 09:24:09;;;;;;;0.10;0.10;;;;;;;18.10;84.98;102022.50;4984835;28;20481;-79
2021/06/05 09:26:35;;;;;;;0.10;0.10;;;;;;;17.97;85.73;102019.34;4968395;28;20483;-80
2021/06/05 09:29:15;;;;;;;0.10;0.10;;;;;;;17.90;84.17;102037.50;4984594;28;20046;-80
2021/06/05 09:32:08;;;;;;;0.10;0.10;;;;;;;17.92;85.29;102032.06;4972203;28;20065;-80
2021/06/05 09:34:39;;;;;;;0.10;0.10;;;;;;;17.87;85.70;102029.88;4968790;28;21360;-80
2021/06/05 09:37:24;;;;;;;0.20;0.20;;;;;;;17.86;85.89;102038.75;4984654;28;20113;-80
2021/06/05 09:39:59;;;;;;;0.10;0.10;;;;;;;17.78;85.69;102039.44;4982716;28;20272;-80
2021/06/05 09:42:34;;;;;;;0.20;0.20;;;;;;;17.65;86.21;102019.56;5000445;28;20042;-80
2021/06/05 09:45:01;;;;;;;0.10;0.10;;;;;;;17.57;85.72;102024.66;4966902;28;20456;-80
2021/06/05 09:47:31;;;;;;;0.15;0.15;;;;;;;17.55;85.57;102032.69;4970766;28;20077;-80
2021/06/05 09:50:18;;;;;;;0.10;0.10;;;;;;;17.58;87.30;102045.59;4968482;28;20030;-80
2021/06/05 09:52:43;;;;;;;0.20;0.20;;;;;;;17.46;85.96;102039.63;4955019;28;20129;-79
2021/06/05 09:55:15;;;;;;;0.13;0.13;;;;;;;17.53;86.17;102053.91;4966803;28;20476;-80
2021/06/05 09:57:43;;;;;;;0.10;0.10;;;;;;;17.43;87.18;102060.97;4982183;28;20045;-80
2021/06/05 10:00:37;;;;;;;0.10;0.10;;;;;;;17.45;87.75;102058.19;4969232;28;20040;-80
2021/06/05 10:03:26;;;;;;;0.10;0.10;;;;;;;17.36;87.89;102037.91;4977776;28;20042;-80
2021/06/05 10:05:52;;;;;;;0.10;0.10;;;;;;;17.46;86.39;102050.16;4986780;28;20125;-80
2021/06/05 10:08:33;;;;;;;0.10;0.10;;;;;;;17.48;87.22;102065.81;4990990;28;20037;-80
2021/06/05 10:11:11;;;;;;;0.20;0.20;;;;;;;17.44;86.39;102057.34;4971561;28;20041;-81
2021/06/05 10:13:40;;;;;;;0.10;0.10;;;;;;;17.43;87.98;102045.16;4993787;28;20092;-80
2021/06/05 10:16:14;;;;;;;0.10;0.10;;;;;;;17.54;88.38;102046.84;4967914;28;20406;-80
2021/06/05 10:18:51;;;;;;;0.22;0.10;;;;;;;17.67;87.83;102054.50;4989330;28;20280;-80
2021/06/05 10:21:23;;;;;;;0.20;0.20;;;;;;;17.67;87.24;102062.41;4944286;28;20140;-80
2021/06/05 10:23:54;;;;;;;0.10;0.10;;;;;;;17.70;85.70;102054.25;4987125;28;20034;-80
2021/06/05 10:26:37;;;;;;;0.10;0.10;;;;;;;17.78;86.18;102057.88;4962425;28;20041;-80
2021/06/05 10:29:13;;;;;;;0.10;0.10;;;;;;;17.72;85.11;102028.59;4976982;28;20038;-80
2021/06/05 10:31:40;;;;;;;0.10;0.10;;;;;;;17.85;84.91;102037.06;4951926;28;20034;-80
2021/06/05 10:34:14;;;;;;;0.10;0.10;;;;;;;18.08;85.09;102064.00;4989163;28;20120;-80
2021/06/05 10:36:49;;;;;;;0.10;0.10;;;;;;;18.11;85.03;102053.16;4972677;28;20053;-80
2021/06/05 10:39:24;;;;;;;0.20;0.20;;;;;;;18.23;84.04;102051.25;4992178;28;20437;-80
2021/06/05 10:41:56;;;;;;;0.10;0.10;;;;;;;18.37;84.45;102064.84;4955897;28;20362;-80
2021/06/05 10:44:23;;;;;;;0.10;0.10;;;;;;;18.39;82.53;102048.88;4980371;28;20121;-80
2021/06/05 10:47:08;;;;;;;0.10;0.10;;;;;;;18.50;83.24;102061.09;4955221;28;20039;-80
2021/06/05 10:49:58;;;;;;;0.10;0.10;;;;;;;18.53;83.17;102061.63;4987975;28;20053;-80
2021/06/05 10:52:32;;;;;;;0.10;0.10;;;;;;;18.64;82.43;102058.84;4982142;28;20596;-80
2021/06/05 10:55:08;;;;;;;0.13;0.13;;;;;;;18.65;81.23;102049.94;4979914;28;20038;-79
2021/06/05 10:57:41;;;;;;;0.10;0.10;;;;;;;18.86;81.08;102043.69;4959530;28;20508;-80
2021/06/05 11:00:42;;;;;;;0.20;0.20;;;;;;;18.97;81.91;102048.75;4974874;28;20038;-80
2021/06/05 11:03:30;;;;;;;0.10;0.10;;;;;;;18.93;81.34;102028.91;4998514;28;20034;-79
2021/06/05 11:06:17;;;;;;;0.10;0.10;;;;;;;19.09;81.11;102049.41;4981625;28;20558;-80
2021/06/05 11:08:45;;;;;;;0.10;0.10;;;;;;;19.07;81.13;102051.38;4999884;28;20066;-80
2021/06/05 11:11:33;;;;;;;0.10;0.10;;;;;;;18.82;81.98;102027.28;4966110;28;20029;-80
2021/06/05 11:14:05;;;;;;;0.20;0.13;;;;;;;18.96;82.44;102039.19;4969101;28;20049;-80
2021/06/05 11:17:10;;;;;;;0.20;0.20;;;;;;;18.98;81.59;102048.63;4952575;28;20055;-80
2021/06/05 11:19:53;;;;;;;0.10;0.10;;;;;;;18.95;80.84;102051.53;4970933;28;20153;-80
2021/06/05 11:22:23;;;;;;;0.10;0.10;;;;;;;18.93;81.90;102048.22;4976499;28;20417;-80
2021/06/05 11:25:07;;;;;;;0.10;0.10;;;;;;;18.84;81.31;102056.16;4984705;28;20041;-80
2021/06/05 11:27:35;;;;;;;0.20;0.10;;;;;;;18.95;82.78;102048.91;4939615;28;20057;-80
2021/06/05 11:30:05;;;;;;;0.10;0.10;;;;;;;19.12;81.69;102049.94;4982629;28;20038;-80
2021/06/05 11:32:56;;;;;;;0.10;0.10;;;;;;;19.49;80.27;102051.72;4958836;28;20030;-80
2021/06/05 11:35:40;;;;;;;0.10;0.10;;;;;;;19.65;79.60;102051.94;4984559;28;20563;-80
2021/06/05 11:38:32;;;;;;;0.15;0.15;;;;;;;19.66;80.38;102058.06;4975536;28;20046;-81
2021/06/05 11:41:09;;;;;;;0.10;0.10;;;;;;;19.55;81.38;102064.38;4979666;28;20074;-80